Time;durP1;ratioP1;P1;durP2;ratioP2;P2;SDS_P1;SDS_P2;PMS_P1;PMS_P2;Temp;Humidity;BMP_temperature;BMP_pressure;BME280_temperature;BME280_humidity;BME280_pressure;Samples;Min_cycle;Max_cycle;Signal;HPM_P1;HPM_P2
2021/10/28 00:14:04;;;;;;;5.40;4.90;;;9.90;78.60;;;;;;5101333;28;20187;-89
2021/10/28 00:16:33;;;;;;;5.43;4.93;;;10.00;79.60;;;;;;5099788;28;20201;-89
2021/10/28 00:19:03;;;;;;;5.20;4.70;;;10.00;78.70;;;;;;5099664;28;20203;-90
2021/10/28 00:21:35;;;;;;;5.53;5.13;;;10.00;78.80;;;;;;5082784;28;20246;-89
2021/10/28 00:24:06;;;;;;;6.10;5.50;;;10.00;78.30;;;;;;5082413;28;20196;-89
2021/10/28 00:26:34;;;;;;;5.40;4.90;;;10.00;77.90;;;;;;5099981;28;20653;-91
2021/10/28 00:29:03;;;;;;;4.80;4.40;;;9.90;78.60;;;;;;5065177;28;20592;-89
2021/10/28 00:31:31;;;;;;;5.37;4.93;;;9.90;78.70;;;;;;5046378;28;20211;-90
2021/10/28 00:33:58;;;;;;;5.50;4.97;;;9.90;78.50;;;;;;5065476;28;20642;-90
2021/10/28 00:36:24;;;;;;;5.23;4.80;;;10.00;78.20;;;;;;5064056;28;20198;-90
2021/10/28 00:38:51;;;;;;;5.40;4.90;;;9.90;77.90;;;;;;5050520;28;20214;-90
2021/10/28 00:41:22;;;;;;;6.03;4.73;;;10.00;77.70;;;;;;5081933;28;20219;-90
2021/10/28 00:43:57;;;;;;;6.90;5.23;;;9.80;77.90;;;;;;5082310;28;20187;-91
2021/10/28 00:46:27;;;;;;;7.40;6.10;;;9.80;78.10;;;;;;5064141;28;20199;-89
2021/10/28 00:48:53;;;;;;;8.67;5.87;;;9.80;77.60;;;;;;5076064;28;20176;-89
2021/10/28 00:51:21;;;;;;;9.30;6.23;;;9.80;79.00;;;;;;5064727;28;20303;-90
2021/10/28 00:53:47;;;;;;;7.60;6.30;;;9.70;78.60;;;;;;5098066;28;20196;-89
2021/10/28 00:56:13;;;;;;;6.33;5.73;;;9.80;79.70;;;;;;5080433;28;20227;-89
2021/10/28 00:58:39;;;;;;;7.13;6.43;;;9.80;80.00;;;;;;5080731;28;20189;-90
2021/10/28 01:01:06;;;;;;;6.23;5.63;;;9.80;79.70;;;;;;5063665;28;20243;-89
2021/10/28 01:03:33;;;;;;;6.53;5.90;;;9.60;77.30;;;;;;5080681;28;20223;-89
2021/10/28 01:05:59;;;;;;;7.50;6.80;;;9.60;79.40;;;;;;5098057;28;20193;-90
2021/10/28 01:08:26;;;;;;;7.27;6.27;;;9.50;80.10;;;;;;5061706;28;20214;-90
2021/10/28 01:10:52;;;;;;;7.53;6.73;;;9.40;79.80;;;;;;5075571;28;20212;-90
2021/10/28 01:13:20;;;;;;;7.77;6.07;;;9.40;80.50;;;;;;5070050;28;20274;-90
2021/10/28 01:15:47;;;;;;;6.40;5.83;;;9.40;80.40;;;;;;5098769;28;20183;-90
2021/10/28 01:18:15;;;;;;;6.00;5.40;;;9.40;79.60;;;;;;5077987;28;20553;-90
2021/10/28 01:20:43;;;;;;;7.27;6.13;;;9.40;79.90;;;;;;5097078;28;20297;-91
2021/10/28 01:23:11;;;;;;;6.60;6.00;;;9.40;79.60;;;;;;5081206;28;20226;-91
2021/10/28 01:25:38;;;;;;;6.60;5.97;;;9.50;79.20;;;;;;5098630;28;20187;-90
2021/10/28 01:28:12;;;;;;;7.57;5.87;;;9.40;79.00;;;;;;5084466;28;20182;-91
2021/10/28 01:30:38;;;;;;;6.83;6.07;;;9.30;78.00;;;;;;5102036;28;20283;-92
2021/10/28 01:33:04;;;;;;;6.57;5.87;;;9.20;78.70;;;;;;5080698;28;20179;-91
2021/10/28 01:35:30;;;;;;;6.20;5.60;;;9.20;78.20;;;;;;5081011;28;20183;-90
2021/10/28 01:37:55;;;;;;;6.47;5.70;;;9.20;78.10;;;;;;5048894;28;20196;-89
2021/10/28 01:40:21;;;;;;;7.60;5.77;;;9.20;77.70;;;;;;5098200;28;20295;-91
2021/10/28 01:42:49;;;;;;;6.60;6.00;;;9.20;78.10;;;;;;5061783;28;20221;-90
2021/10/28 01:45:18;;;;;;;6.53;5.93;;;9.20;78.50;;;;;;5080211;28;20217;-89
2021/10/28 01:47:44;;;;;;;6.70;6.10;;;9.20;78.10;;;;;;5098712;28;20244;-90
2021/10/28 01:50:11;;;;;;;7.40;6.70;;;9.10;77.50;;;;;;5072430;28;20206;-91
2021/10/28 01:52:39;;;;;;;7.67;6.53;;;9.20;78.30;;;;;;5088517;28;20241;-90
2021/10/28 01:55:10;;;;;;;6.57;5.97;;;9.20;77.70;;;;;;5080566;28;20623;-90
2021/10/28 01:57:37;;;;;;;6.97;6.27;;;9.10;78.60;;;;;;5080920;28;20188;-90
2021/10/28 02:00:22;;;;;;;6.43;5.70;;;9.10;78.30;;;;;;5079773;28;20218;-91
2021/10/28 02:02:50;;;;;;;6.57;5.97;;;9.10;78.70;;;;;;5078214;28;20194;-90
2021/10/28 02:05:22;;;;;;;7.27;6.57;;;9.10;78.30;;;;;;5060449;28;20223;-90
2021/10/28 02:07:48;;;;;;;6.50;6.00;;;9.00;77.80;;;;;;5080121;28;20174;-90
2021/10/28 02:10:16;;;;;;;7.17;6.47;;;8.90;77.90;;;;;;5078336;28;20238;-89
2021/10/28 02:12:42;;;;;;;6.73;6.03;;;8.90;77.80;;;;;;5061206;28;20230;-89
2021/10/28 02:15:12;;;;;;;6.80;6.20;;;8.70;77.40;;;;;;5098073;28;20191;-91
2021/10/28 02:17:38;;;;;;;6.97;6.27;;;8.70;78.80;;;;;;5079642;28;20206;-91
2021/10/28 02:20:07;;;;;;;6.67;5.97;;;8.70;78.60;;;;;;5078310;28;20222;-91
2021/10/28 02:22:34;;;;;;;6.70;6.10;;;8.70;78.40;;;;;;5064455;28;20241;-91
2021/10/28 02:24:59;;;;;;;6.33;5.73;;;8.70;78.90;;;;;;5096941;28;20213;-90
2021/10/28 02:27:25;;;;;;;7.03;6.40;;;8.70;78.80;;;;;;5096946;28;20174;-91
2021/10/28 02:29:51;;;;;;;7.57;6.87;;;8.70;79.30;;;;;;5078919;28;20240;-90
2021/10/28 02:32:18;;;;;;;6.40;5.80;;;8.70;78.60;;;;;;5060950;28;20201;-90
2021/10/28 02:34:44;;;;;;;7.00;6.30;;;8.70;78.60;;;;;;5096126;28;20218;-91
2021/10/28 02:37:10;;;;;;;7.20;6.50;;;8.70;78.50;;;;;;5060962;28;20198;-90
2021/10/28 02:39:36;;;;;;;6.80;6.20;;;8.70;77.80;;;;;;5047423;28;20277;-91
2021/10/28 02:42:02;;;;;;;6.90;6.00;;;8.50;78.20;;;;;;5078690;28;20207;-91
2021/10/28 02:44:28;;;;;;;6.73;6.20;;;8.60;78.40;;;;;;5078802;28;20183;-91
2021/10/28 02:46:54;;;;;;;7.03;6.43;;;8.50;78.20;;;;;;5078647;28;20191;-91
2021/10/28 02:49:20;;;;;;;6.47;5.87;;;8.50;78.60;;;;;;5062331;28;20198;-91
2021/10/28 02:51:47;;;;;;;6.70;6.13;;;8.50;78.90;;;;;;5059088;28;20274;-90
2021/10/28 02:54:22;;;;;;;6.50;5.90;;;8.60;79.00;;;;;;5095793;28;20191;-90
2021/10/28 02:56:49;;;;;;;6.70;6.10;;;8.60;78.10;;;;;;5079153;28;20190;-90
2021/10/28 02:59:15;;;;;;;6.70;6.10;;;8.60;77.80;;;;;;5096312;28;20259;-91
2021/10/28 03:01:47;;;;;;;6.00;5.50;;;8.50;77.30;;;;;;5079059;28;20574;-92
2021/10/28 03:04:18;;;;;;;8.40;6.67;;;8.40;78.00;;;;;;5096544;28;20187;-90
2021/10/28 03:06:47;;;;;;;6.63;5.97;;;8.30;77.10;;;;;;5080227;28;20198;-90
2021/10/28 03:09:16;;;;;;;6.33;5.77;;;8.30;77.40;;;;;;5079093;28;20233;-91
2021/10/28 03:11:43;;;;;;;6.20;5.60;;;8.20;77.90;;;;;;5068810;28;20214;-92
2021/10/28 03:14:14;;;;;;;5.77;5.27;;;8.20;78.10;;;;;;5083063;28;20398;-91
2021/10/28 03:27:27;;;;;;;15.63;6.13;;;8.20;77.40;;;;;;5097883;28;20186;-91
2021/10/28 03:29:52;;;;;;;5.93;5.40;;;8.10;77.00;;;;;;5095928;28;20697;-90
2021/10/28 03:32:20;;;;;;;5.97;5.47;;;8.00;78.30;;;;;;5078399;28;20202;-90
2021/10/28 03:34:47;;;;;;;5.43;4.83;;;8.00;78.00;;;;;;5061426;28;20683;-91
2021/10/28 04:30:01;;;;;;;5.40;4.90;;;8.10;82.40;;;;;;5080642;28;20723;-91
2021/10/28 04:32:28;;;;;;;6.00;5.40;;;8.20;83.00;;;;;;5082558;28;20207;-92
2021/10/28 04:34:54;;;;;;;5.50;5.00;;;8.20;82.20;;;;;;5085598;28;20183;-92
2021/10/28 04:37:20;;;;;;;5.10;4.70;;;8.10;81.80;;;;;;5081029;28;20187;-89
2021/10/28 04:39:47;;;;;;;5.33;4.93;;;8.20;83.20;;;;;;5095574;28;20206;-90
2021/10/28 04:42:13;;;;;;;6.07;4.87;;;8.20;83.20;;;;;;5096662;28;20190;-90
2021/10/28 04:44:40;;;;;;;5.67;5.27;;;8.20;83.10;;;;;;5079642;28;20435;-91
2021/10/28 04:47:06;;;;;;;6.37;5.73;;;8.20;82.30;;;;;;5074165;28;20321;-91
2021/10/28 04:49:32;;;;;;;5.60;5.20;;;8.20;81.60;;;;;;5063596;28;20191;-90
2021/10/28 04:51:58;;;;;;;5.90;5.40;;;8.20;82.40;;;;;;5079384;28;20275;-90
2021/10/28 04:54:24;;;;;;;7.00;6.03;;;8.20;82.50;;;;;;5078174;28;20205;-90
2021/10/28 04:56:50;;;;;;;6.03;5.53;;;8.20;82.50;;;;;;5079928;28;20216;-91
2021/10/28 04:59:15;;;;;;;5.70;5.13;;;8.20;82.60;;;;;;5096944;28;20219;-90
2021/10/28 05:01:41;;;;;;;7.70;6.90;;;8.30;82.80;;;;;;5096136;28;20210;-90
2021/10/28 05:04:09;;;;;;;7.70;7.00;;;8.20;83.40;;;;;;5079908;28;20183;-90
2021/10/28 05:06:34;;;;;;;8.57;7.67;;;8.20;83.50;;;;;;5098140;28;20187;-90
2021/10/28 05:09:00;;;;;;;8.60;7.60;;;8.30;83.80;;;;;;5095536;28;20689;-90
2021/10/28 05:11:28;;;;;;;8.07;6.97;;;8.30;83.30;;;;;;5097214;28;20199;-90
2021/10/28 05:13:54;;;;;;;9.30;7.90;;;8.40;83.70;;;;;;5097582;28;20179;-90
2021/10/28 05:16:20;;;;;;;7.83;7.03;;;8.40;83.40;;;;;;5103946;28;20194;-90
2021/10/28 05:18:46;;;;;;;10.33;8.33;;;8.30;83.70;;;;;;5097478;28;20204;-90
2021/10/28 05:21:14;;;;;;;9.27;8.00;;;8.30;83.90;;;;;;5115625;28;20203;-90
2021/10/28 05:23:40;;;;;;;12.70;10.43;;;8.30;84.80;;;;;;5103044;28;20202;-90
2021/10/28 05:26:07;;;;;;;10.93;9.03;;;8.20;84.00;;;;;;5090396;28;20198;-90
2021/10/28 05:28:37;;;;;;;11.10;9.10;;;8.20;86.00;;;;;;5096011;28;20201;-90
2021/10/28 05:31:03;;;;;;;9.30;8.33;;;8.30;85.80;;;;;;5076973;28;20261;-90
2021/10/28 05:33:28;;;;;;;13.97;10.17;;;8.30;86.70;;;;;;5091400;28;20187;-90
2021/10/28 05:35:57;;;;;;;14.03;9.93;;;8.30;86.40;;;;;;5095060;28;20191;-91
2021/10/28 05:38:23;;;;;;;29.77;9.63;;;8.10;87.40;;;;;;5093941;28;20191;-90
2021/10/28 05:40:49;;;;;;;24.80;9.63;;;7.80;90.20;;;;;;5075042;28;20218;-90
2021/10/28 05:43:14;;;;;;;20.30;8.57;;;7.70;90.50;;;;;;5091039;28;20221;-91
2021/10/28 05:45:44;;;;;;;10.03;7.43;;;7.50;91.30;;;;;;5075925;28;20765;-90
2021/10/28 05:48:10;;;;;;;15.60;6.90;;;7.70;92.00;;;;;;5095117;28;20298;-90
2021/10/28 05:50:41;;;;;;;9.93;7.07;;;7.70;90.70;;;;;;5091930;28;20214;-90
2021/10/28 05:53:08;;;;;;;9.33;6.37;;;7.60;91.70;;;;;;5057283;28;20195;-90
2021/10/28 05:55:34;;;;;;;12.70;7.00;;;7.60;91.80;;;;;;5075356;28;20179;-90
2021/10/28 05:58:00;;;;;;;15.63;6.97;;;7.50;92.60;;;;;;5072097;28;20187;-90
2021/10/28 06:00:25;;;;;;;30.57;6.80;;;7.60;92.90;;;;;;5091975;28;20592;-90
2021/10/28 06:02:52;;;;;;;12.23;5.77;;;7.60;92.90;;;;;;5070223;28;20191;-90
2021/10/28 06:05:18;;;;;;;14.97;6.47;;;7.50;94.30;;;;;;5091748;28;20183;-90
2021/10/28 06:07:44;;;;;;;7.23;6.53;;;7.60;94.30;;;;;;5091627;28;20778;-89
2021/10/28 06:10:16;;;;;;;7.17;6.17;;;7.70;94.70;;;;;;5070223;28;20252;-89
2021/10/28 06:12:45;;;;;;;6.60;5.73;;;7.80;93.60;;;;;;5089661;28;20557;-89
2021/10/28 06:15:13;;;;;;;7.37;6.27;;;8.00;93.30;;;;;;5073099;28;20681;-88
2021/10/28 06:20:21;;;;;;;8.53;6.90;;;8.20;92.70;;;;;;5087850;28;20226;-89
2021/10/28 06:22:48;;;;;;;13.23;7.77;;;8.20;93.00;;;;;;5091198;28;20183;-87
2021/10/28 06:25:14;;;;;;;8.40;7.03;;;8.10;92.80;;;;;;5069412;28;20213;-87
2021/10/28 06:27:40;;;;;;;32.17;9.33;;;8.00;93.40;;;;;;5088949;28;20187;-87
2021/10/28 06:30:06;;;;;;;10.17;9.07;;;7.90;93.40;;;;;;5091757;28;20259;-83
2021/10/28 06:32:33;;;;;;;23.73;9.07;;;7.80;94.90;;;;;;5090498;28;20277;-87
2021/10/28 06:35:00;;;;;;;20.53;9.23;;;7.80;95.40;;;;;;5068491;28;20195;-89
2021/10/28 06:37:27;;;;;;;16.57;9.00;;;7.70;95.00;;;;;;5091447;28;20187;-89
2021/10/28 06:39:53;;;;;;;11.10;8.90;;;7.60;96.30;;;;;;5071054;28;20217;-90
2021/10/28 06:42:19;;;;;;;17.57;9.40;;;7.60;97.10;;;;;;5066822;28;20192;-90
2021/10/28 06:44:45;;;;;;;32.40;10.40;;;7.60;96.90;;;;;;5072368;28;20202;-90
2021/10/28 06:47:11;;;;;;;52.33;11.23;;;7.60;97.00;;;;;;5072199;28;20233;-90
2021/10/28 06:49:40;;;;;;;39.63;10.70;;;7.50;97.40;;;;;;5076807;28;20187;-91
2021/10/28 06:52:09;;;;;;;35.03;10.33;;;7.50;97.90;;;;;;5094211;28;20177;-90
2021/10/28 06:54:40;;;;;;;14.90;9.53;;;7.50;98.30;;;;;;5109984;28;20170;-90
2021/10/28 06:57:20;;;;;;;32.17;10.73;;;7.50;98.60;;;;;;5099181;28;20197;-90
2021/10/28 07:02:41;;;;;;;21.40;10.37;;;7.60;98.50;;;;;;5063710;28;20582;-90
2021/10/28 07:05:07;;;;;;;18.90;9.93;;;7.70;99.20;;;;;;5092947;28;20250;-89
2021/10/28 07:07:40;;;;;;;52.00;11.37;;;7.80;98.40;;;;;;5110319;27;20294;-90
2021/10/28 07:10:16;;;;;;;11.30;9.83;;;7.90;97.90;;;;;;5096343;28;20237;-88
2021/10/28 07:13:01;;;;;;;28.70;11.10;;;7.80;98.60;;;;;;5094383;28;20183;-89
2021/10/28 07:15:39;;;;;;;13.90;9.70;;;7.80;98.40;;;;;;5055151;28;20219;-88
2021/10/28 07:21:03;;;;;;;34.40;11.03;;;7.90;98.30;;;;;;5094927;28;20221;-88
2021/10/28 07:32:11;;;;;;;13.80;10.20;;;8.00;98.20;;;;;;5091974;28;20707;-88
2021/10/28 07:39:24;;;;;;;11.10;10.00;;;8.10;98.20;;;;;;5061789;28;20774;-89
2021/10/28 08:14:26;;;;;;;10.97;9.87;;;8.60;95.30;;;;;;5102724;28;20194;-88
2021/10/28 08:19:48;;;;;;;12.17;10.73;;;8.70;94.20;;;;;;5026090;28;20605;-88
2021/10/28 08:30:11;;;;;;;26.53;12.27;;;8.00;98.60;;;;;;5081603;28;20243;-89
2021/10/28 08:32:37;;;;;;;15.57;12.67;;;8.00;98.20;;;;;;5099764;28;20236;-89
2021/10/28 08:35:04;;;;;;;13.03;11.33;;;7.90;99.30;;;;;;5066216;28;20579;-88
2021/10/28 08:37:41;;;;;;;13.63;11.77;;;8.10;98.90;;;;;;5099987;28;20190;-88
2021/10/28 08:40:09;;;;;;;11.93;10.73;;;8.10;97.70;;;;;;5096993;28;20210;-89
2021/10/28 08:42:37;;;;;;;13.77;12.10;;;8.20;97.90;;;;;;5082624;28;20171;-88
2021/10/28 08:45:04;;;;;;;11.87;10.77;;;8.30;96.50;;;;;;5099376;28;20183;-88
2021/10/28 08:47:30;;;;;;;13.60;12.30;;;8.60;96.60;;;;;;5072162;28;20197;-88
2021/10/28 08:50:07;;;;;;;17.43;12.33;;;8.60;94.70;;;;;;5080052;28;20234;-89
2021/10/28 08:55:25;;;;;;;11.20;10.10;;;8.40;96.50;;;;;;5093428;28;20678;-89
2021/10/28 09:24:14;;;;;;;12.77;11.40;;;9.00;92.70;;;;;;5091935;28;20224;-90
2021/10/28 09:26:46;;;;;;;13.37;12.07;;;9.10;92.10;;;;;;5072930;28;20195;-87
2021/10/28 09:29:35;;;;;;;14.43;12.97;;;9.30;92.20;;;;;;5090348;28;20194;-88
2021/10/28 09:35:16;;;;;;;14.60;13.03;;;9.30;91.10;;;;;;5097473;28;20571;-89
2021/10/28 09:51:37;;;;;;;16.00;14.50;;;9.60;90.10;;;;;;5100378;28;20206;-88
2021/10/28 09:59:49;;;;;;;16.17;13.53;;;9.30;92.20;;;;;;5083238;28;20218;-88
2021/10/28 10:05:04;;;;;;;16.13;14.50;;;9.70;90.40;;;;;;5080259;28;20243;-88
2021/10/28 10:07:30;;;;;;;14.47;12.97;;;9.70;90.50;;;;;;5063443;28;20607;-88
2021/10/28 10:09:57;;;;;;;20.93;15.63;;;9.70;90.70;;;;;;5101871;28;20604;-89
2021/10/28 10:12:23;;;;;;;18.10;16.20;;;9.80;90.30;;;;;;5080229;28;20191;-88
2021/10/28 10:14:49;;;;;;;17.00;15.30;;;9.70;91.10;;;;;;5065976;28;20613;-90
2021/10/28 10:17:17;;;;;;;18.30;16.50;;;9.80;90.30;;;;;;5083672;28;20195;-88
2021/10/28 10:19:48;;;;;;;18.73;15.93;;;9.70;91.30;;;;;;5100779;28;20203;-89
2021/10/28 10:25:55;;;;;;;19.20;17.20;;;9.80;91.20;;;;;;5085235;28;20221;-89
2021/10/28 12:17:06;;;;;;;21.53;19.37;;;11.00;87.80;;;;;;5094338;28;20211;-90
2021/10/28 13:04:07;;;;;;;20.70;18.63;;;15.70;69.10;;;;;;5056383;28;20190;-90
2021/10/28 13:49:57;;;;;;;19.77;17.85;;;17.50;62.90;;;;;;5083896;28;20217;-90
2021/10/28 14:18:02;;;;;;;19.73;17.92;;;18.50;59.30;;;;;;5097245;28;20189;-90
2021/10/28 14:25:12;;;;;;;20.13;18.40;;;18.00;60.20;;;;;;5084276;28;20600;-89
2021/10/28 14:32:52;;;;;;;18.85;17.10;;;18.40;59.90;;;;;;5083816;28;20252;-89
2021/10/28 15:29:53;;;;;;;19.70;17.77;;;16.50;65.90;;;;;;5081253;28;20216;-90
2021/10/28 15:37:46;;;;;;;17.95;16.30;;;15.80;68.50;;;;;;5102200;28;20648;-89
2021/10/28 16:23:14;;;;;;;13.40;12.07;;;13.40;75.20;;;;;;5104755;28;20206;-89
2021/10/28 16:25:40;;;;;;;13.27;11.93;;;13.50;75.90;;;;;;5088984;28;20190;-89
2021/10/28 16:28:06;;;;;;;14.93;11.70;;;13.30;75.60;;;;;;5067872;28;20206;-89
2021/10/28 16:30:34;;;;;;;15.47;13.63;;;13.20;75.70;;;;;;5099036;28;20709;-89
2021/10/28 16:32:59;;;;;;;15.27;13.80;;;13.20;76.90;;;;;;5080256;28;20201;-89
2021/10/28 16:35:25;;;;;;;13.43;12.23;;;13.10;77.10;;;;;;5085525;28;20218;-89
2021/10/28 16:37:52;;;;;;;13.17;11.97;;;13.00;77.10;;;;;;5078133;28;20274;-89
2021/10/28 16:40:18;;;;;;;27.93;16.53;;;12.80;76.50;;;;;;5076180;28;20267;-89
2021/10/28 16:42:44;;;;;;;14.30;12.00;;;12.80;77.40;;;;;;5100473;28;20197;-89
2021/10/28 16:45:10;;;;;;;12.10;10.83;;;12.70;76.80;;;;;;5095987;28;20608;-90
2021/10/28 16:47:36;;;;;;;13.33;11.93;;;12.70;76.70;;;;;;5101407;28;20669;-90
2021/10/28 16:50:07;;;;;;;19.83;17.93;;;12.70;76.60;;;;;;5101709;28;20271;-90
2021/10/28 16:52:34;;;;;;;11.23;10.23;;;12.60;76.50;;;;;;5096041;28;20459;-90
2021/10/28 16:54:59;;;;;;;12.30;11.27;;;12.40;76.80;;;;;;5100862;28;20189;-90
2021/10/28 16:57:25;;;;;;;15.23;11.90;;;12.30;76.90;;;;;;5100435;28;20226;-90
2021/10/28 16:59:51;;;;;;;13.03;11.73;;;12.30;76.80;;;;;;5082232;28;20217;-90
2021/10/28 17:02:17;;;;;;;14.20;12.03;;;12.30;77.00;;;;;;5080945;28;20194;-90
2021/10/28 17:04:45;;;;;;;16.00;12.40;;;12.30;76.80;;;;;;5067124;28;20195;-90
2021/10/28 17:07:11;;;;;;;13.27;11.97;;;12.30;76.70;;;;;;5103802;28;20185;-90
2021/10/28 17:09:36;;;;;;;14.50;13.20;;;12.20;76.50;;;;;;5081550;28;20251;-90
2021/10/28 17:12:03;;;;;;;13.03;11.83;;;12.10;77.00;;;;;;5068791;28;20203;-90
2021/10/28 17:14:29;;;;;;;13.80;10.93;;;11.90;77.30;;;;;;5101533;28;20188;-90
2021/10/28 17:16:55;;;;;;;17.43;13.10;;;11.80;77.10;;;;;;5063840;28;20175;-89
2021/10/28 17:19:21;;;;;;;23.80;13.87;;;11.80;77.50;;;;;;5103716;28;20237;-89
2021/10/28 17:21:47;;;;;;;14.90;13.23;;;11.80;77.40;;;;;;5079796;28;20291;-90
2021/10/28 17:24:49;;;;;;;14.13;12.30;;;11.90;77.70;;;;;;5078770;28;20219;-90
2021/10/28 17:27:07;;;;;;;15.40;13.97;;;11.80;77.00;;;;;;5100730;28;20282;-90
2021/10/28 17:29:33;;;;;;;18.27;13.93;;;11.90;77.30;;;;;;5105584;28;20217;-89
2021/10/28 17:31:59;;;;;;;15.00;13.40;;;11.70;77.10;;;;;;5103326;28;20210;-90
2021/10/28 17:34:27;;;;;;;15.63;14.17;;;11.70;77.00;;;;;;5068289;28;20187;-90
2021/10/28 17:36:54;;;;;;;16.03;13.83;;;11.70;76.80;;;;;;5087728;28;20379;-89
2021/10/28 17:39:22;;;;;;;16.07;13.10;;;11.70;77.00;;;;;;5107517;28;20178;-90
2021/10/28 17:41:49;;;;;;;20.37;18.03;;;11.70;76.90;;;;;;5083356;28;20283;-90
2021/10/28 17:44:16;;;;;;;17.10;15.30;;;11.60;77.10;;;;;;5112312;28;20178;-91
2021/10/28 17:46:42;;;;;;;16.20;14.60;;;11.60;76.70;;;;;;5069543;28;20290;-90
2021/10/28 17:49:08;;;;;;;21.10;15.23;;;11.60;76.60;;;;;;5102780;28;20700;-89
2021/10/28 17:51:38;;;;;;;14.63;13.23;;;11.60;76.10;;;;;;5085284;28;20218;-88
2021/10/28 17:54:09;;;;;;;15.60;13.53;;;11.60;76.80;;;;;;5076412;28;20187;-90
2021/10/28 17:56:37;;;;;;;16.63;15.17;;;11.60;76.30;;;;;;5098195;28;20195;-89
2021/10/28 17:59:04;;;;;;;17.63;15.93;;;11.50;76.90;;;;;;5067259;28;20199;-90
2021/10/28 18:01:32;;;;;;;21.43;17.57;;;11.40;78.00;;;;;;5088739;28;20242;-90
2021/10/28 18:04:00;;;;;;;18.60;16.90;;;11.20;79.30;;;;;;5099209;28;20199;-90
2021/10/28 18:06:28;;;;;;;19.63;17.63;;;11.10;79.40;;;;;;5096002;28;20642;-90
2021/10/28 18:08:56;;;;;;;18.03;16.27;;;10.90;80.30;;;;;;5104465;28;20197;-90
2021/10/28 18:11:22;;;;;;;17.77;15.83;;;10.80;80.20;;;;;;5114264;28;20202;-90
2021/10/28 18:13:53;;;;;;;17.97;16.13;;;10.70;81.10;;;;;;5098066;28;20267;-90
2021/10/28 18:16:21;;;;;;;19.93;15.83;;;10.70;80.90;;;;;;5109304;28;20197;-90
2021/10/28 18:18:47;;;;;;;18.80;16.57;;;10.70;80.30;;;;;;5097269;28;20699;-90
2021/10/28 18:21:14;;;;;;;18.87;17.10;;;10.60;80.10;;;;;;5096731;28;20221;-90
2021/10/28 18:23:43;;;;;;;18.07;15.87;;;10.60;80.20;;;;;;5076340;28;20206;-90
2021/10/28 18:26:09;;;;;;;19.40;17.50;;;10.70;79.60;;;;;;5085264;28;20203;-90
2021/10/28 18:28:35;;;;;;;16.90;15.10;;;10.70;78.80;;;;;;5062124;28;20285;-90
2021/10/28 18:31:02;;;;;;;17.20;15.40;;;10.80;78.80;;;;;;5074738;28;20243;-90
2021/10/28 18:33:28;;;;;;;16.23;14.63;;;10.70;79.00;;;;;;5100450;28;20186;-89
2021/10/28 18:35:53;;;;;;;17.10;15.40;;;10.70;78.80;;;;;;5083042;28;20215;-90
2021/10/28 18:38:21;;;;;;;15.73;14.17;;;10.70;78.20;;;;;;5098017;28;20207;-90
2021/10/28 18:40:47;;;;;;;15.90;14.30;;;10.60;78.70;;;;;;5079501;28;20221;-90
2021/10/28 18:43:16;;;;;;;17.40;15.70;;;10.60;78.70;;;;;;5098503;28;20642;-90
2021/10/28 18:45:43;;;;;;;17.03;15.43;;;10.70;78.20;;;;;;5097027;28;20171;-90
2021/10/28 18:48:09;;;;;;;14.97;13.63;;;10.70;77.80;;;;;;5084832;28;20209;-89
2021/10/28 18:50:36;;;;;;;16.10;14.53;;;10.60;78.10;;;;;;5111137;28;20268;-90
2021/10/28 18:53:02;;;;;;;17.07;15.40;;;10.70;77.80;;;;;;5072416;28;20167;-89
2021/10/28 18:55:28;;;;;;;17.20;15.47;;;10.70;77.60;;;;;;5081767;28;20194;-90
2021/10/28 18:57:54;;;;;;;15.03;13.63;;;10.70;77.40;;;;;;5056124;28;20571;-90
2021/10/28 19:00:20;;;;;;;16.50;15.00;;;10.60;77.40;;;;;;5096030;28;20592;-90
2021/10/28 19:02:46;;;;;;;25.23;16.83;;;10.50;77.40;;;;;;5094364;28;20748;-90
2021/10/28 19:05:12;;;;;;;16.33;14.70;;;10.50;77.00;;;;;;5074823;28;20306;-90
2021/10/28 19:07:39;;;;;;;16.23;13.90;;;10.50;77.60;;;;;;5095372;28;20184;-90
2021/10/28 19:10:05;;;;;;;17.60;15.03;;;10.40;77.30;;;;;;5096430;28;20209;-90
2021/10/28 19:12:31;;;;;;;16.43;14.70;;;10.40;77.00;;;;;;5093026;28;20268;-90
2021/10/28 19:14:57;;;;;;;16.30;14.43;;;10.40;77.50;;;;;;5058929;28;20213;-90
2021/10/28 19:17:23;;;;;;;16.17;14.53;;;10.30;77.40;;;;;;5095991;28;20192;-90
2021/10/28 19:19:50;;;;;;;15.97;14.37;;;10.20;77.20;;;;;;5091274;28;20216;-90
2021/10/28 19:22:15;;;;;;;15.20;13.60;;;10.20;77.50;;;;;;5074060;28;20786;-90
2021/10/28 19:24:41;;;;;;;13.93;12.73;;;10.20;77.40;;;;;;5077067;28;20195;-90
2021/10/28 19:27:07;;;;;;;15.27;13.73;;;10.20;77.30;;;;;;5061371;28;20694;-91
2021/10/28 19:29:37;;;;;;;15.17;13.60;;;10.20;77.10;;;;;;5098362;28;20220;-91
2021/10/28 19:32:17;;;;;;;14.27;12.93;;;10.20;77.10;;;;;;5100756;28;20184;-90
2021/10/28 19:34:43;;;;;;;18.37;13.90;;;10.20;77.50;;;;;;5079515;28;20196;-89
2021/10/28 19:37:17;;;;;;;14.93;13.60;;;10.10;76.50;;;;;;5084575;28;20202;-91
2021/10/28 19:47:38;;;;;;;15.40;13.80;;;9.90;77.70;;;;;;5092000;28;20187;-90
2021/10/28 19:50:06;;;;;;;14.57;13.07;;;9.80;77.90;;;;;;5057120;28;20609;-90
2021/10/28 19:52:32;;;;;;;14.17;12.87;;;9.90;77.80;;;;;;5085018;28;20200;-89
2021/10/28 19:55:04;;;;;;;14.73;13.17;;;9.80;77.50;;;;;;5103341;28;20253;-89
2021/10/28 19:57:33;;;;;;;14.23;12.77;;;9.90;77.10;;;;;;5066549;28;20231;-90
2021/10/28 20:21:31;;;;;;;12.43;11.27;;;9.50;77.10;;;;;;5081542;28;20219;-90
2021/10/28 20:23:58;;;;;;;12.13;10.97;;;9.50;77.20;;;;;;5071429;28;20210;-90
2021/10/28 20:26:24;;;;;;;11.70;10.57;;;9.50;76.90;;;;;;5100314;28;20265;-90
2021/10/28 20:28:52;;;;;;;11.30;10.23;;;9.30;76.90;;;;;;5080873;28;20178;-89
2021/10/28 20:31:20;;;;;;;12.23;11.13;;;9.30;78.00;;;;;;5084384;28;20210;-90
2021/10/28 20:39:04;;;;;;;12.37;11.17;;;9.20;78.50;;;;;;5082384;28;20273;-89
2021/10/28 20:41:31;;;;;;;13.03;11.80;;;9.30;80.00;;;;;;5097174;28;20206;-89
2021/10/28 20:43:57;;;;;;;14.53;13.10;;;9.30;78.90;;;;;;5096377;28;20224;-89
2021/10/28 20:46:26;;;;;;;14.17;12.77;;;9.40;78.10;;;;;;5096300;28;20213;-90
2021/10/28 20:48:56;;;;;;;13.27;11.97;;;9.20;77.50;;;;;;5102669;28;20187;-89
2021/10/28 20:51:22;;;;;;;13.80;12.43;;;9.10;79.00;;;;;;5101514;28;20191;-90
2021/10/28 20:53:48;;;;;;;14.83;13.37;;;9.20;78.30;;;;;;5112558;28;20202;-89
2021/10/28 20:56:14;;;;;;;16.37;14.77;;;9.10;77.20;;;;;;5104530;28;20209;-89
2021/10/28 20:58:40;;;;;;;15.27;13.67;;;9.00;79.20;;;;;;5090780;28;20251;-89
2021/10/28 21:01:07;;;;;;;14.80;13.30;;;9.00;80.20;;;;;;5101868;28;20227;-90
2021/10/28 21:03:33;;;;;;;15.00;13.60;;;9.10;80.20;;;;;;5084564;28;20211;-89
2021/10/28 21:06:02;;;;;;;16.97;15.30;;;9.10;79.90;;;;;;5092633;28;20225;-89
2021/10/28 21:08:28;;;;;;;14.77;13.20;;;9.10;80.10;;;;;;5053806;28;20189;-89
2021/10/28 21:10:54;;;;;;;14.67;13.27;;;9.20;80.40;;;;;;5102981;28;20209;-89
2021/10/28 21:13:21;;;;;;;16.07;13.90;;;9.20;80.30;;;;;;5066793;28;20198;-89
2021/10/28 21:15:47;;;;;;;14.50;13.10;;;9.30;80.30;;;;;;5066246;28;20675;-89
2021/10/28 21:18:13;;;;;;;15.53;13.93;;;9.30;79.70;;;;;;5083275;28;20186;-92
2021/10/28 21:20:39;;;;;;;15.17;13.67;;;9.30;79.80;;;;;;5119074;28;20234;-92
2021/10/28 21:23:05;;;;;;;16.20;14.53;;;9.40;79.80;;;;;;5115892;28;20190;-91
2021/10/28 21:25:31;;;;;;;16.10;14.50;;;9.40;79.70;;;;;;5077462;28;20195;-91
2021/10/28 21:27:57;;;;;;;18.60;15.03;;;9.40;80.00;;;;;;5067850;28;20206;-92
2021/10/28 21:30:23;;;;;;;17.13;15.43;;;9.30;80.50;;;;;;5100129;28;20226;-91
2021/10/28 21:32:49;;;;;;;15.23;13.73;;;9.20;81.10;;;;;;5068862;28;20282;-91
2021/10/28 21:35:16;;;;;;;17.13;15.33;;;9.20;81.60;;;;;;5104841;28;20188;-91
2021/10/28 21:37:43;;;;;;;15.97;14.43;;;8.90;82.20;;;;;;5067980;28;20195;-91
2021/10/28 21:40:10;;;;;;;15.97;12.97;;;8.90;83.80;;;;;;5072563;28;20765;-92
2021/10/28 21:42:36;;;;;;;16.30;14.33;;;9.00;83.70;;;;;;5080910;28;20179;-92
2021/10/28 21:45:05;;;;;;;15.60;13.90;;;9.10;83.40;;;;;;5069737;28;20282;-91
2021/10/28 21:47:34;;;;;;;19.87;14.60;;;9.20;83.10;;;;;;5065216;28;20191;-92
2021/10/28 21:50:00;;;;;;;18.57;16.43;;;9.30;83.10;;;;;;5067246;28;20276;-92
2021/10/28 21:52:32;;;;;;;20.40;17.93;;;9.30;83.40;;;;;;5081140;28;20202;-92
2021/10/28 21:58:03;;;;;;;35.20;25.00;;;9.40;85.80;;;;;;5086625;28;20269;-92
2021/10/28 22:00:50;;;;;;;31.93;26.37;;;9.50;86.20;;;;;;5082520;28;20215;-92
2021/10/28 22:04:05;;;;;;;28.40;22.23;;;9.60;89.40;;;;;;5058449;28;20203;-92
2021/10/28 22:24:58;;;;;;;32.97;27.67;;;9.60;90.20;;;;;;5083404;28;20233;-93
2021/10/28 22:27:26;;;;;;;28.73;25.43;;;9.60;91.00;;;;;;5063651;28;20640;-93
2021/10/28 22:29:54;;;;;;;33.43;29.90;;;9.60;91.00;;;;;;5083518;28;20181;-93
2021/10/28 22:32:20;;;;;;;30.43;27.20;;;9.70;91.80;;;;;;5066856;28;20187;-93
2021/10/28 22:34:50;;;;;;;41.60;28.47;;;9.70;91.90;;;;;;5081364;28;20179;-92